createdAt,value
2022-11-16T00:01:48.458Z,9.53
2022-11-16T00:04:15.775Z,9.51
2022-11-16T00:06:42.925Z,9.57
2022-11-16T00:09:23.699Z,9.63
2022-11-16T00:11:54.934Z,9.63
2022-11-16T00:14:25.374Z,9.65
2022-11-16T00:16:53.111Z,9.67
2022-11-16T00:19:20.480Z,9.66
2022-11-16T00:21:47.730Z,9.67
2022-11-16T00:24:17.514Z,9.66
2022-11-16T00:26:45.893Z,9.64
2022-11-16T00:29:23.981Z,9.71
2022-11-16T00:31:53.833Z,9.76
2022-11-16T00:34:23.096Z,9.81
2022-11-16T00:36:50.900Z,9.74
2022-11-16T00:39:19.321Z,9.68
2022-11-16T00:41:48.051Z,9.79
2022-11-16T00:44:15.942Z,9.75
2022-11-16T00:46:43.225Z,9.80
2022-11-16T00:49:10.530Z,9.77
2022-11-16T00:51:38.224Z,9.80
2022-11-16T00:54:07.716Z,9.80
2022-11-16T00:56:35.787Z,9.81
2022-11-16T00:59:03.409Z,9.77
2022-11-16T01:01:30.744Z,9.79
2022-11-16T01:03:58.380Z,9.79
2022-11-16T01:06:25.533Z,9.78
2022-11-16T01:08:52.789Z,9.74
2022-11-16T01:11:38.710Z,9.73
2022-11-16T01:14:09.002Z,9.76
2022-11-16T01:16:36.590Z,9.73
2022-11-16T01:19:04.822Z,9.70
2022-11-16T01:21:32.160Z,9.73
2022-11-16T01:23:59.430Z,9.60
2022-11-16T01:26:26.597Z,9.57
2022-11-16T01:28:53.985Z,9.57
2022-11-16T01:31:21.413Z,9.68
2022-11-16T01:33:48.654Z,9.56
2022-11-16T01:36:15.919Z,9.54
2022-11-16T01:38:45.840Z,9.59
2022-11-16T01:41:17.415Z,9.48
2022-11-16T01:44:23.383Z,9.54
2022-11-16T01:46:50.559Z,9.39
2022-11-16T01:49:22.172Z,9.50
2022-11-16T01:51:55.607Z,9.49
2022-11-16T01:54:24.149Z,9.43
2022-11-16T01:56:54.374Z,9.48
2022-11-16T01:59:22.187Z,9.31
2022-11-16T02:01:49.345Z,9.32
2022-11-16T02:04:16.489Z,9.32
2022-11-16T02:07:06.243Z,9.40
2022-11-16T02:09:55.633Z,9.35
2022-11-16T02:12:31.509Z,9.40
2022-11-16T02:15:15.634Z,9.43
2022-11-16T02:18:30.621Z,9.36
2022-11-16T02:21:22.823Z,9.36
2022-11-16T02:24:22.120Z,9.24
2022-11-16T02:27:41.991Z,9.25
2022-11-16T02:30:09.798Z,9.23
2022-11-16T02:32:56.744Z,9.13
2022-11-16T02:35:38.347Z,9.01
2022-11-16T02:38:13.541Z,9.03
2022-11-16T02:40:48.336Z,8.95
2022-11-16T02:43:29.531Z,8.94
2022-11-16T02:46:04.774Z,8.97
2022-11-16T02:48:42.519Z,8.96
2022-11-16T02:51:11.462Z,8.91
2022-11-16T02:53:59.295Z,8.89
2022-11-16T02:56:28.256Z,8.95
2022-11-16T02:58:59.212Z,8.96
2022-11-16T03:01:41.305Z,8.91
2022-11-16T03:04:17.607Z,8.90
2022-11-16T03:06:49.778Z,8.94
2022-11-16T03:09:30.944Z,8.87
2022-11-16T03:12:06.157Z,8.80
2022-11-16T03:15:09.788Z,8.69
2022-11-16T03:17:48.932Z,8.59
2022-11-16T03:20:26.928Z,8.74
2022-11-16T03:23:02.415Z,8.65
2022-11-16T03:25:38.956Z,8.51
2022-11-16T03:28:15.727Z,8.57
2022-11-16T03:30:52.848Z,8.49
2022-11-16T03:33:32.554Z,8.58
2022-11-16T03:36:11.470Z,8.46
2022-11-16T03:38:42.525Z,8.38
2022-11-16T03:41:12.744Z,8.38
2022-11-16T03:43:45.225Z,8.42
2022-11-16T03:46:15.297Z,8.31
2022-11-16T03:48:43.240Z,8.31
2022-11-16T03:51:12.225Z,8.16
2022-11-16T03:53:39.782Z,8.20
2022-11-16T03:56:07.474Z,8.33
2022-11-16T03:58:34.946Z,8.20
2022-11-16T04:01:03.464Z,8.19
2022-11-16T04:03:30.795Z,8.23
2022-11-16T04:06:17.307Z,8.34
2022-11-16T04:09:03.499Z,8.21
2022-11-16T04:11:49.576Z,8.12
2022-11-16T04:14:42.179Z,8.15
2022-11-16T04:17:32.187Z,8.14
2022-11-16T04:20:18.273Z,8.01
2022-11-16T04:23:24.232Z,7.98
2022-11-16T04:25:52.577Z,8.04
2022-11-16T04:28:26.633Z,8.02
2022-11-16T04:31:16.797Z,8.04
2022-11-16T04:34:03.820Z,7.94
2022-11-16T04:36:49.899Z,8.02
2022-11-16T04:39:17.128Z,7.78
2022-11-16T04:42:03.124Z,7.90
2022-11-16T04:44:50.380Z,7.98
2022-11-16T04:47:17.560Z,7.85
2022-11-16T04:49:44.756Z,7.91
2022-11-16T04:52:11.960Z,7.77
2022-11-16T04:54:39.160Z,7.78
2022-11-16T04:57:06.330Z,7.76
2022-11-16T04:59:33.477Z,7.83
2022-11-16T05:02:09.874Z,7.85
2022-11-16T05:04:43.331Z,7.79
2022-11-16T05:07:14.437Z,7.78
2022-11-16T05:09:45.300Z,7.76
2022-11-16T05:12:24.957Z,7.69
2022-11-16T05:14:54.921Z,7.66
2022-11-16T05:17:23.867Z,7.81
2022-11-16T05:20:09.799Z,7.76
2022-11-16T05:22:37.236Z,7.70
2022-11-16T05:25:06.991Z,7.77
2022-11-16T05:27:34.693Z,7.82
2022-11-16T05:30:01.911Z,7.68
2022-11-16T05:32:29.089Z,7.75
2022-11-16T05:34:56.270Z,7.81
2022-11-16T05:37:26.579Z,7.73
2022-11-16T05:39:56.981Z,7.56
2022-11-16T05:42:24.215Z,7.63
2022-11-16T05:44:51.387Z,7.80
2022-11-16T05:47:18.530Z,7.75
2022-11-16T05:49:45.842Z,7.62
2022-11-16T05:52:13.141Z,7.69
2022-11-16T05:54:40.319Z,7.67
2022-11-16T05:57:07.523Z,7.64
2022-11-16T05:59:34.852Z,7.66
2022-11-16T06:02:03.855Z,7.53
2022-11-16T06:04:31.083Z,7.41
2022-11-16T06:06:58.291Z,7.50
2022-11-16T06:09:25.560Z,7.60
2022-11-16T06:11:52.765Z,7.61
2022-11-16T06:14:20.004Z,7.33
2022-11-16T06:16:47.228Z,7.44
2022-11-16T06:19:14.386Z,7.30
2022-11-16T06:21:41.620Z,7.50
2022-11-16T06:24:09.515Z,7.37
2022-11-16T06:26:37.240Z,7.35
2022-11-16T06:29:04.732Z,7.36
2022-11-16T06:31:32.007Z,7.35
2022-11-16T06:33:59.470Z,7.23
2022-11-16T06:36:26.873Z,7.44
2022-11-16T06:38:54.049Z,7.46
2022-11-16T06:41:22.126Z,7.46
2022-11-16T06:43:49.274Z,7.40
2022-11-16T06:46:16.634Z,7.42
2022-11-16T06:48:43.940Z,7.50
2022-11-16T06:51:11.141Z,7.59
2022-11-16T06:53:38.301Z,7.49
2022-11-16T06:56:06.818Z,7.39
2022-11-16T06:58:34.507Z,7.47
2022-11-16T07:01:12.166Z,7.52
2022-11-16T07:03:39.505Z,7.40
2022-11-16T07:06:12.452Z,7.38
2022-11-16T07:08:40.256Z,7.48
2022-11-16T07:11:10.719Z,7.45
2022-11-16T07:13:39.364Z,7.47
2022-11-16T07:16:11.573Z,7.53
2022-11-16T07:18:41.134Z,7.44
2022-11-16T07:21:15.343Z,7.53
2022-11-16T07:23:43.506Z,7.35
2022-11-16T07:26:11.658Z,7.24
2022-11-16T07:28:43.509Z,7.41
2022-11-16T07:31:16.215Z,7.50
2022-11-16T07:33:43.395Z,7.54
2022-11-16T07:36:13.949Z,7.37
2022-11-16T07:38:41.685Z,7.43
2022-11-16T07:41:17.652Z,7.52
2022-11-16T07:43:51.505Z,7.63
2022-11-16T07:46:46.719Z,7.66
2022-11-16T07:49:19.056Z,7.46
2022-11-16T07:51:46.869Z,7.41
2022-11-16T07:54:15.376Z,7.64
2022-11-16T07:56:42.794Z,7.56
2022-11-16T07:59:09.992Z,7.42
2022-11-16T08:01:37.251Z,7.61
2022-11-16T08:04:04.468Z,7.54
2022-11-16T08:06:32.168Z,7.51
2022-11-16T08:09:00.679Z,7.57
2022-11-16T08:11:27.897Z,7.37
2022-11-16T08:13:55.997Z,7.59
2022-11-16T08:16:23.750Z,7.66
2022-11-16T08:18:50.936Z,7.49
2022-11-16T08:21:19.800Z,7.60
2022-11-16T08:23:47.376Z,7.52
2022-11-16T08:26:18.692Z,7.49
2022-11-16T08:28:48.328Z,7.74
2022-11-16T08:31:21.351Z,7.76
2022-11-16T08:33:48.524Z,7.59
2022-11-16T08:36:18.684Z,7.69
2022-11-16T08:38:51.055Z,7.67
2022-11-16T08:41:20.452Z,7.75
2022-11-16T08:43:50.422Z,7.81
2022-11-16T08:46:17.853Z,7.73
2022-11-16T08:48:46.088Z,7.83
2022-11-16T08:51:19.700Z,7.71
2022-11-16T08:53:48.510Z,7.55
2022-11-16T08:56:18.188Z,7.64
2022-11-16T08:58:52.603Z,7.78
2022-11-16T09:01:28.112Z,7.85
2022-11-16T09:03:56.135Z,7.78
2022-11-16T09:06:26.470Z,7.85
2022-11-16T09:08:55.040Z,7.88
2022-11-16T09:11:24.471Z,7.79
2022-11-16T09:13:54.867Z,7.83
2022-11-16T09:16:23.603Z,7.66
2022-11-16T09:18:52.040Z,7.94
2022-11-16T09:21:26.630Z,7.82
2022-11-16T09:23:56.080Z,7.63
2022-11-16T09:26:25.276Z,7.97
2022-11-16T09:29:00.874Z,7.87
2022-11-16T09:31:31.095Z,7.70
2022-11-16T09:33:58.898Z,7.97
2022-11-16T09:36:28.770Z,8.06
2022-11-16T09:42:22.918Z,8.03
2022-11-16T09:44:59.736Z,7.93
2022-11-16T09:47:52.130Z,7.83
2022-11-16T09:50:44.491Z,7.63
2022-11-16T09:53:19.046Z,7.74
2022-11-16T09:55:53.648Z,7.73
2022-11-16T09:59:00.230Z,7.80
2022-11-16T10:02:19.454Z,7.71
2022-11-16T10:05:03.449Z,7.70
2022-11-16T10:07:44.509Z,7.86
2022-11-16T10:10:23.258Z,7.72
2022-11-16T10:13:10.021Z,7.74
2022-11-16T10:15:43.109Z,7.56
2022-11-16T10:18:21.262Z,7.87
2022-11-16T10:21:07.370Z,7.82
2022-11-16T10:23:52.589Z,7.92
2022-11-16T10:26:42.678Z,7.90
2022-11-16T10:30:00.592Z,8.04
2022-11-16T10:32:44.103Z,7.78
2022-11-16T10:35:11.230Z,8.12
2022-11-16T10:37:46.697Z,7.93
2022-11-16T10:40:17.294Z,8.12
2022-11-16T10:42:57.776Z,8.21
2022-11-16T10:46:03.148Z,8.30
2022-11-16T10:49:21.948Z,8.08
2022-11-16T10:51:49.115Z,8.17
2022-11-16T10:54:18.301Z,8.05
2022-11-16T10:56:49.860Z,8.29
2022-11-16T10:59:20.553Z,8.02
2022-11-16T11:01:54.781Z,8.32
2022-11-16T11:04:31.284Z,8.30
2022-11-16T11:07:22.982Z,8.16
2022-11-16T11:09:54.825Z,8.36
2022-11-16T11:12:39.748Z,8.20
2022-11-16T11:15:13.357Z,8.06
2022-11-16T11:17:45.335Z,8.18
2022-11-16T11:20:15.195Z,8.05
2022-11-16T11:23:03.120Z,8.21
2022-11-16T11:25:38.740Z,8.13
2022-11-16T11:28:19.091Z,8.43
2022-11-16T11:31:07.216Z,8.17
2022-11-16T11:33:48.240Z,8.23
2022-11-16T11:36:27.153Z,8.26
2022-11-16T11:39:00.318Z,8.28
2022-11-16T11:41:34.656Z,8.36
2022-11-16T11:44:25.331Z,8.31
2022-11-16T11:50:17.364Z,8.38
2022-11-16T11:53:37.001Z,8.22
2022-11-16T11:56:04.992Z,8.19
2022-11-16T11:58:38.559Z,8.15
2022-11-16T12:01:27.421Z,8.01
2022-11-16T12:04:37.399Z,7.98
2022-11-16T12:07:20.408Z,8.28
2022-11-16T12:10:21.597Z,8.10
2022-11-16T12:13:36.442Z,8.16
2022-11-16T12:16:30.550Z,7.96
2022-11-16T12:19:25.705Z,8.16
2022-11-16T12:22:14.742Z,8.23
2022-11-16T12:25:22.360Z,7.92
2022-11-16T12:28:28.459Z,7.96
2022-11-16T12:31:29.088Z,8.03
2022-11-16T12:34:11.277Z,7.97
2022-11-16T12:36:50.359Z,7.88
2022-11-16T12:39:27.201Z,7.85
2022-11-16T12:42:02.500Z,7.74
2022-11-16T12:44:47.633Z,7.73
2022-11-16T12:47:43.170Z,7.84
2022-11-16T12:50:46.876Z,7.76
2022-11-16T12:54:10.343Z,7.79
2022-11-16T12:57:12.853Z,7.92
2022-11-16T12:59:51.563Z,8.02
2022-11-16T13:03:07.184Z,7.89
2022-11-16T13:05:53.680Z,7.84
2022-11-16T13:09:04.081Z,7.63
2022-11-16T13:11:51.237Z,7.75
2022-11-16T13:14:28.214Z,7.65
2022-11-16T13:16:58.030Z,7.57
2022-11-16T13:19:25.983Z,7.73
2022-11-16T13:22:07.338Z,7.59
2022-11-16T13:25:02.473Z,7.58
2022-11-16T13:27:49.776Z,7.64
2022-11-16T13:30:28.840Z,7.57
2022-11-16T13:33:01.920Z,7.59
2022-11-16T13:35:29.675Z,7.45
2022-11-16T13:37:56.819Z,7.52
2022-11-16T13:40:30.478Z,7.60
2022-11-16T13:43:06.014Z,7.52
2022-11-16T13:45:43.098Z,7.49
2022-11-16T13:48:32.557Z,7.56
2022-11-16T13:51:21.301Z,7.64
2022-11-16T13:56:51.223Z,7.57
2022-11-16T13:59:26.605Z,7.55
2022-11-16T14:02:41.907Z,7.43
2022-11-16T14:05:41.536Z,7.48
2022-11-16T14:08:27.003Z,7.37
2022-11-16T14:10:54.101Z,7.51
2022-11-16T14:13:44.227Z,7.48
2022-11-16T14:16:17.805Z,7.35
2022-11-16T14:18:56.171Z,7.52
2022-11-16T14:21:59.719Z,7.46
2022-11-16T14:24:42.047Z,7.50
2022-11-16T14:27:34.154Z,7.41
2022-11-16T14:30:24.250Z,7.66
2022-11-16T14:32:56.075Z,7.57
2022-11-16T14:35:39.231Z,7.61
2022-11-16T14:38:29.649Z,7.57
2022-11-16T14:41:00.043Z,7.49
2022-11-16T14:43:45.846Z,7.49
2022-11-16T14:46:27.828Z,7.57
2022-11-16T14:48:59.081Z,7.40
2022-11-16T14:51:33.895Z,7.56
2022-11-16T14:54:11.332Z,7.42
2022-11-16T14:56:59.939Z,7.45
2022-11-16T14:59:29.884Z,7.31
2022-11-16T15:02:01.062Z,7.33
2022-11-16T15:04:29.829Z,7.44
2022-11-16T15:07:03.777Z,7.51
2022-11-16T15:09:37.733Z,7.45
2022-11-16T15:12:31.861Z,7.29
2022-11-16T15:15:07.886Z,7.39
2022-11-16T15:17:35.476Z,7.40
2022-11-16T15:22:22.747Z,-136.53
2022-11-16T15:25:01.357Z,-136.53
2022-11-16T15:27:37.093Z,-136.53
2022-11-16T15:30:30.710Z,-136.53
2022-11-16T15:32:58.147Z,-136.53
2022-11-16T15:35:35.813Z,-136.53
2022-11-16T15:38:21.564Z,-136.53
2022-11-16T15:40:59.192Z,-136.53
2022-11-16T15:43:45.190Z,-136.53
2022-11-16T15:46:18.425Z,-136.53
2022-11-16T15:48:46.549Z,-136.53
2022-11-16T15:51:31.097Z,-136.53
2022-11-16T15:54:26.572Z,-136.53
2022-11-16T15:57:09.853Z,-136.53
2022-11-16T15:59:37.396Z,-136.53
2022-11-16T16:02:04.856Z,-136.53
2022-11-16T16:04:32.166Z,-136.53
2022-11-16T16:07:00.583Z,-136.53
2022-11-16T16:09:39.800Z,-136.53
2022-11-16T16:12:26.785Z,-136.53
2022-11-16T16:15:27.244Z,-136.53
2022-11-16T16:17:54.819Z,-136.53
2022-11-16T16:20:27.532Z,-136.53
2022-11-16T16:23:08.152Z,-136.53
2022-11-16T16:25:36.868Z,-136.53
2022-11-16T16:28:04.678Z,-136.53
2022-11-16T16:30:34.655Z,-136.53
2022-11-16T16:33:02.356Z,-136.53
2022-11-16T16:35:29.672Z,-136.53
2022-11-16T16:37:59.482Z,-136.53
2022-11-16T16:40:28.770Z,-136.53
2022-11-16T16:42:56.854Z,-136.53
2022-11-16T16:45:50.499Z,-136.53
2022-11-16T16:48:17.651Z,-136.53
2022-11-16T16:50:45.157Z,-136.53
2022-11-16T16:53:14.649Z,-136.53
2022-11-16T16:55:44.227Z,-136.53
2022-11-16T16:58:13.548Z,-136.53
2022-11-16T17:00:41.865Z,-136.53
2022-11-16T17:03:09.310Z,-136.53
2022-11-16T17:05:37.236Z,-136.53
2022-11-16T17:08:04.820Z,-136.53
2022-11-16T17:10:32.058Z,-136.53
2022-11-16T17:13:02.338Z,-136.53
2022-11-16T17:15:29.883Z,-136.53
2022-11-16T17:17:58.971Z,-136.53
2022-11-16T17:20:26.409Z,-136.53
2022-11-16T17:22:53.742Z,-136.53
2022-11-16T17:25:21.219Z,-136.53
2022-11-16T17:27:48.450Z,-136.53
2022-11-16T17:30:16.109Z,-136.53
2022-11-16T17:32:43.448Z,-136.53
2022-11-16T17:35:10.687Z,-136.53
2022-11-16T17:37:38.008Z,-136.53
2022-11-16T17:40:05.928Z,-136.53
2022-11-16T17:42:36.786Z,-136.53
2022-11-16T17:45:04.483Z,-136.53
2022-11-16T17:47:33.405Z,-136.53
2022-11-16T17:50:00.952Z,-136.53
2022-11-16T17:52:28.125Z,-136.53
2022-11-16T17:54:55.317Z,-136.53
2022-11-16T17:57:22.513Z,-136.53
2022-11-16T17:59:49.699Z,-136.53
2022-11-16T18:02:16.895Z,-136.53
2022-11-16T18:04:49.709Z,-136.53
2022-11-16T18:07:18.304Z,-136.53
2022-11-16T18:09:45.497Z,-136.53
2022-11-16T18:12:12.684Z,-136.53
2022-11-16T18:14:39.848Z,-136.53
2022-11-16T18:17:07.050Z,-136.53
2022-11-16T18:19:34.228Z,-136.53
2022-11-16T18:22:01.434Z,-136.53
2022-11-16T18:24:28.957Z,-136.53
2022-11-16T18:26:56.150Z,-136.53
2022-11-16T18:29:23.349Z,-136.53
2022-11-16T18:31:50.558Z,-136.53
2022-11-16T18:34:19.330Z,-136.53
2022-11-16T18:36:48.859Z,-136.53
2022-11-16T18:39:17.800Z,-136.53
2022-11-16T18:41:50.144Z,-136.53
2022-11-16T18:44:20.567Z,-136.53
2022-11-16T18:46:47.723Z,-136.53
2022-11-16T18:49:15.359Z,-136.53
2022-11-16T18:51:42.606Z,-136.53
2022-11-16T18:54:09.842Z,-136.53
2022-11-16T18:56:37.090Z,-136.53
2022-11-16T18:59:04.297Z,-136.53
2022-11-16T19:01:31.586Z,-136.53
2022-11-16T19:03:58.785Z,-136.53
2022-11-16T19:06:26.100Z,-136.53
2022-11-16T19:08:59.137Z,-136.53
2022-11-16T19:11:27.643Z,-136.53
2022-11-16T19:14:00.664Z,-136.53
2022-11-16T19:16:28.120Z,-136.53
2022-11-16T19:18:55.548Z,-136.53
2022-11-16T19:21:23.200Z,-136.53
2022-11-16T19:23:53.510Z,-136.53
2022-11-16T19:26:24.538Z,-136.53
2022-11-16T19:28:53.734Z,-136.53
2022-11-16T19:31:28.620Z,-136.53
2022-11-16T19:33:58.009Z,-136.53
2022-11-16T19:36:27.204Z,-136.53
2022-11-16T19:38:54.762Z,-136.53
2022-11-16T19:41:23.758Z,-136.53
2022-11-16T19:43:56.862Z,-136.53
2022-11-16T19:46:25.366Z,-136.53
2022-11-16T19:48:53.635Z,-136.53
2022-11-16T19:51:27.045Z,-136.53
2022-11-16T19:53:55.074Z,-136.53
2022-11-16T19:56:24.061Z,-136.53
2022-11-16T19:58:51.977Z,-136.53
2022-11-16T20:01:23.571Z,-136.53
2022-11-16T20:03:51.206Z,-136.53
2022-11-16T20:06:25.547Z,-136.53
2022-11-16T20:08:55.934Z,-136.53
2022-11-16T20:11:26.592Z,-136.53
2022-11-16T20:13:56.977Z,-136.53
2022-11-16T20:16:34.047Z,-136.53
2022-11-16T20:19:06.940Z,-136.53
2022-11-16T20:21:38.165Z,-136.53
2022-11-16T20:24:08.608Z,-136.53
2022-11-16T20:26:40.345Z,-136.53
2022-11-16T20:29:07.497Z,-136.53
2022-11-16T20:31:34.705Z,-136.53
2022-11-16T20:34:05.595Z,-136.53
2022-11-16T20:36:33.893Z,-136.53
2022-11-16T20:39:01.410Z,-136.53
2022-11-16T20:41:32.952Z,-136.53
2022-11-16T20:44:02.550Z,-136.53
2022-11-16T20:46:33.157Z,-136.53
2022-11-16T20:49:01.747Z,-136.53
2022-11-16T20:51:30.071Z,-136.53
2022-11-16T20:53:57.817Z,-136.53
2022-11-16T20:56:25.586Z,-136.53
2022-11-16T20:58:52.937Z,-136.53
2022-11-16T21:01:31.697Z,-136.53
2022-11-16T21:04:02.536Z,-136.53
2022-11-16T21:06:30.532Z,-136.53
2022-11-16T21:08:58.606Z,-136.53
2022-11-16T21:11:30.479Z,-136.53
2022-11-16T21:14:16.287Z,-136.53
2022-11-16T21:16:43.812Z,-136.53
2022-11-16T21:19:11.908Z,-136.53
2022-11-16T21:21:40.719Z,-136.53
2022-11-16T21:24:09.497Z,-136.53
2022-11-16T21:26:37.498Z,-136.53
2022-11-16T21:29:05.358Z,-136.53
2022-11-16T21:31:36.078Z,-136.53
2022-11-16T21:34:03.514Z,-136.53
2022-11-16T21:36:33.168Z,-136.53
2022-11-16T21:39:00.985Z,-136.53
2022-11-16T21:41:28.700Z,-136.53
2022-11-16T21:43:56.191Z,-136.53
2022-11-16T21:46:26.593Z,-136.53
2022-11-16T21:48:56.437Z,-136.53
2022-11-16T21:51:27.058Z,-136.53
2022-11-16T21:53:55.325Z,-136.53
2022-11-16T21:56:25.743Z,-136.53
2022-11-16T21:58:53.974Z,-136.53
2022-11-16T22:01:23.022Z,-136.53
2022-11-16T22:04:10.321Z,-136.53
2022-11-16T22:06:56.359Z,-136.53
2022-11-16T22:09:23.638Z,-136.53
2022-11-16T22:11:50.872Z,-136.53
2022-11-16T22:14:18.108Z,-136.53
2022-11-16T22:16:45.386Z,-136.53
2022-11-16T22:19:12.563Z,-136.53
2022-11-16T22:21:39.913Z,-136.53
2022-11-16T22:24:07.548Z,-136.53
2022-11-16T22:26:35.013Z,-136.53
2022-11-16T22:29:02.163Z,-136.53
2022-11-16T22:31:29.305Z,-136.53
2022-11-16T22:33:56.492Z,-136.53
2022-11-16T22:36:23.643Z,-136.53
2022-11-16T22:38:50.891Z,-136.53
2022-11-16T22:41:18.328Z,-136.53
2022-11-16T22:43:45.508Z,-136.53
2022-11-16T22:46:12.695Z,-136.53
2022-11-16T22:48:40.983Z,-136.53
2022-11-16T22:51:22.368Z,-136.53
2022-11-16T22:54:01.360Z,-136.53
2022-11-16T22:56:30.509Z,-136.53
2022-11-16T22:58:58.455Z,-136.53
2022-11-16T23:01:25.693Z,-136.53
2022-11-16T23:03:52.908Z,-136.53
2022-11-16T23:06:20.411Z,-136.53
2022-11-16T23:08:48.050Z,-136.53
2022-11-16T23:11:40.757Z,-136.53
2022-11-16T23:14:30.861Z,-136.53
2022-11-16T23:16:58.316Z,-136.53
2022-11-16T23:19:45.232Z,-136.53
2022-11-16T23:22:41.111Z,-136.53
2022-11-16T23:25:30.674Z,-136.53
2022-11-16T23:28:08.029Z,-136.53
2022-11-16T23:30:36.674Z,-136.53
2022-11-16T23:33:03.936Z,-136.53
2022-11-16T23:35:31.142Z,-136.53
2022-11-16T23:38:01.495Z,-136.53
2022-11-16T23:40:36.507Z,-136.53
2022-11-16T23:43:23.764Z,-136.53
2022-11-16T23:45:51.337Z,-136.53
2022-11-16T23:48:18.883Z,-136.53
2022-11-16T23:50:46.744Z,-136.53
2022-11-16T23:53:14.294Z,-136.53
2022-11-16T23:55:41.883Z,-136.53
2022-11-16T23:58:14.650Z,-136.53
